Time;durP1;ratioP1;P1;durP2;ratioP2;P2;SDS_P1;SDS_P2;PMS_P1;PMS_P2;Temp;Humidity;BMP_temperature;BMP_pressure;BME280_temperature;BME280_humidity;BME280_pressure;Samples;Min_cycle;Max_cycle;Signal;HPM_P1;HPM_P2
2023/04/03 00:01:55;;;;;;;3.63;1.10;;;2.00;99.90;;;;;;4936631;28;20133;-83
2023/04/03 00:04:21;;;;;;;3.83;0.98;;;2.60;99.90;;;;;;4936723;28;20057;-84
2023/04/03 00:06:47;;;;;;;5.43;1.33;;;1.90;99.90;;;;;;4951646;28;20046;-84
2023/04/03 00:09:13;;;;;;;5.75;1.20;;;2.50;99.90;;;;;;4937206;28;20057;-84
2023/04/03 00:11:38;;;;;;;3.58;0.88;;;2.50;99.90;;;;;;4937564;28;20189;-84
2023/04/03 00:14:04;;;;;;;3.03;1.10;;;1.90;99.90;;;;;;4952345;28;20495;-84
2023/04/03 00:16:30;;;;;;;2.83;1.13;;;2.00;99.90;;;;;;4937343;28;20046;-84
2023/04/03 00:18:58;;;;;;;4.20;1.00;;;3.00;99.90;;;;;;4936643;28;20039;-84
2023/04/03 00:21:24;;;;;;;5.65;0.90;;;2.10;99.90;;;;;;4952524;28;20046;-84
2023/04/03 00:23:50;;;;;;;4.07;1.10;;;1.90;99.90;;;;;;4937105;28;20142;-84
2023/04/03 00:26:15;;;;;;;2.60;0.93;;;2.10;99.90;;;;;;4951289;28;20051;-84
2023/04/03 00:28:41;;;;;;;3.97;1.30;;;1.90;99.90;;;;;;4937181;28;20046;-84
2023/04/03 00:31:07;;;;;;;5.22;1.33;;;1.90;99.90;;;;;;4952253;28;20043;-83
2023/04/03 00:33:32;;;;;;;7.03;1.60;;;2.20;99.90;;;;;;4948247;28;20051;-83
2023/04/03 00:35:58;;;;;;;4.95;1.10;;;1.90;99.90;;;;;;4936513;28;20078;-84
2023/04/03 00:38:24;;;;;;;4.90;1.38;;;1.80;99.90;;;;;;4936967;28;20047;-84
2023/04/03 00:40:50;;;;;;;3.45;1.30;;;1.80;99.90;;;;;;4935996;28;20608;-84
2023/04/03 00:43:19;;;;;;;4.50;1.30;;;1.80;99.90;;;;;;4936584;28;20129;-84
2023/04/03 00:45:48;;;;;;;4.45;1.13;;;1.80;99.90;;;;;;4936784;28;20495;-83
2023/04/03 00:48:22;;;;;;;3.97;1.15;;;2.20;99.90;;;;;;4935855;28;20043;-83
2023/04/03 00:50:49;;;;;;;5.85;1.27;;;1.70;99.90;;;;;;4951898;28;20043;-83
2023/04/03 00:53:21;;;;;;;4.88;1.13;;;1.90;99.90;;;;;;4936687;28;20043;-84
2023/04/03 00:55:48;;;;;;;5.63;1.40;;;1.70;99.90;;;;;;4935765;28;20066;-84
2023/04/03 00:58:18;;;;;;;4.63;0.90;;;1.80;99.90;;;;;;4936578;28;20082;-83
2023/04/03 01:00:50;;;;;;;6.30;1.60;;;1.60;99.90;;;;;;4936281;28;20551;-84
2023/04/03 01:03:15;;;;;;;4.40;1.13;;;1.80;99.90;;;;;;4936292;28;20061;-83
2023/04/03 01:05:41;;;;;;;5.50;1.25;;;1.60;99.90;;;;;;4935493;28;20499;-84
2023/04/03 01:08:07;;;;;;;4.47;1.38;;;1.80;99.90;;;;;;4936003;28;20097;-83
2023/04/03 01:10:33;;;;;;;7.07;1.55;;;1.60;99.90;;;;;;4951803;28;20109;-83
2023/04/03 01:13:00;;;;;;;3.17;1.50;;;2.00;99.90;;;;;;4936237;28;20345;-84
2023/04/03 01:15:32;;;;;;;3.72;1.10;;;1.80;99.90;;;;;;4935209;28;20038;-84
2023/04/03 01:17:58;;;;;;;5.72;1.40;;;2.20;99.90;;;;;;4936042;28;20412;-83
2023/04/03 01:20:35;;;;;;;4.72;1.60;;;1.70;99.90;;;;;;4951500;28;20057;-83
2023/04/03 01:23:15;;;;;;;6.80;1.33;;;1.40;99.90;;;;;;4935492;28;20576;-83
2023/04/03 01:25:41;;;;;;;4.43;1.33;;;1.40;99.90;;;;;;4935485;28;20414;-84
2023/04/03 01:28:10;;;;;;;6.85;1.40;;;1.40;99.90;;;;;;4936098;28;20522;-84
2023/04/03 01:30:52;;;;;;;6.35;1.63;;;1.60;99.90;;;;;;4950500;28;20047;-84
2023/04/03 01:33:17;;;;;;;7.93;1.42;;;1.40;99.90;;;;;;4935641;28;20054;-84
2023/04/03 01:35:43;;;;;;;9.13;2.13;;;1.30;99.90;;;;;;4935008;28;20053;-83
2023/04/03 01:38:10;;;;;;;5.25;1.35;;;1.80;99.90;;;;;;4951134;28;20046;-84
2023/04/03 01:40:36;;;;;;;4.38;1.25;;;1.70;99.90;;;;;;4935559;28;20051;-84
2023/04/03 01:43:01;;;;;;;6.93;1.48;;;1.30;99.90;;;;;;4951788;28;20541;-83
2023/04/03 01:45:27;;;;;;;6.22;1.63;;;1.50;99.90;;;;;;4934762;28;20656;-83
2023/04/03 01:47:53;;;;;;;7.32;1.42;;;1.50;99.90;;;;;;4936027;28;20038;-84
2023/04/03 01:50:19;;;;;;;8.02;1.80;;;1.20;99.90;;;;;;4934798;28;20545;-83
2023/04/03 01:52:44;;;;;;;7.57;1.77;;;1.20;99.90;;;;;;4934840;28;20042;-83
2023/04/03 01:55:10;;;;;;;9.75;1.70;;;1.40;99.90;;;;;;4935753;28;20117;-83
2023/04/03 01:57:36;;;;;;;9.00;1.60;;;1.60;99.90;;;;;;4934258;28;20438;-84
2023/04/03 02:00:01;;;;;;;4.82;1.80;;;1.60;99.90;;;;;;4935569;28;20077;-84
2023/04/03 02:02:27;;;;;;;9.05;1.50;;;1.10;99.90;;;;;;4935376;28;20043;-83
2023/04/03 02:04:53;;;;;;;7.60;1.60;;;1.10;99.90;;;;;;4934687;28;20047;-84
2023/04/03 02:07:18;;;;;;;6.53;1.85;;;2.00;99.90;;;;;;4935290;28;20050;-84
2023/04/03 02:09:44;;;;;;;9.10;1.85;;;1.00;99.90;;;;;;4950834;28;20506;-83
2023/04/03 02:12:10;;;;;;;6.60;1.63;;;1.40;99.90;;;;;;4934267;28;20055;-83
2023/04/03 02:14:35;;;;;;;5.75;1.30;;;1.50;99.90;;;;;;4935639;28;20085;-84
2023/04/03 02:17:05;;;;;;;5.43;1.60;;;1.00;99.90;;;;;;4950615;28;20546;-84
2023/04/03 02:19:31;;;;;;;7.03;1.50;;;1.10;99.90;;;;;;4950945;28;20054;-84
2023/04/03 02:21:57;;;;;;;6.60;1.58;;;0.90;99.90;;;;;;4950458;28;20039;-83
2023/04/03 02:24:23;;;;;;;6.45;1.65;;;1.30;99.90;;;;;;4951383;28;20486;-84
2023/04/03 02:26:48;;;;;;;10.25;2.25;;;1.30;99.90;;;;;;4933110;28;20077;-84
2023/04/03 02:29:14;;;;;;;5.72;1.30;;;1.20;99.90;;;;;;4935375;28;20121;-84
2023/04/03 02:31:40;;;;;;;6.78;1.75;;;1.40;99.90;;;;;;4950884;28;20174;-84
2023/04/03 02:34:05;;;;;;;8.80;1.77;;;0.70;99.90;;;;;;4946351;28;20046;-84
2023/04/03 02:36:31;;;;;;;11.32;1.90;;;1.10;99.90;;;;;;4950772;28;20042;-84
2023/04/03 02:38:57;;;;;;;5.38;1.63;;;1.10;99.90;;;;;;4935182;28;20166;-83
2023/04/03 02:41:25;;;;;;;10.77;2.35;;;0.60;99.90;;;;;;4950277;28;20376;-83
2023/04/03 02:43:51;;;;;;;8.65;1.77;;;1.10;99.90;;;;;;4934925;28;20047;-83
2023/04/03 02:46:16;;;;;;;6.55;1.60;;;0.60;99.90;;;;;;4950321;28;20049;-83
2023/04/03 02:48:42;;;;;;;9.07;2.33;;;0.80;99.90;;;;;;4934321;28;20042;-83
2023/04/03 02:51:07;;;;;;;7.60;2.08;;;0.50;99.90;;;;;;4949943;28;20152;-84
2023/04/03 02:53:33;;;;;;;7.57;2.15;;;0.80;99.90;;;;;;4934654;28;20039;-84
2023/04/03 02:55:59;;;;;;;9.07;2.13;;;0.50;99.90;;;;;;4935193;28;20046;-83
2023/04/03 02:58:24;;;;;;;7.00;2.13;;;0.90;99.90;;;;;;4934649;28;20126;-85
2023/04/03 03:00:50;;;;;;;8.13;1.90;;;0.90;99.90;;;;;;4950257;28;20054;-84
2023/04/03 03:03:16;;;;;;;10.98;1.75;;;1.20;99.90;;;;;;4950976;28;20168;-84
2023/04/03 03:05:42;;;;;;;7.78;1.75;;;1.00;99.90;;;;;;4934322;28;20035;-84
2023/04/03 03:08:07;;;;;;;6.28;1.67;;;0.30;99.90;;;;;;4950254;28;20540;-84
2023/04/03 03:10:33;;;;;;;6.47;2.03;;;0.90;99.90;;;;;;4934073;28;20047;-84
2023/04/03 03:12:59;;;;;;;11.93;2.08;;;1.00;99.90;;;;;;4951027;28;20161;-84
2023/04/03 03:15:25;;;;;;;11.77;1.77;;;0.60;99.90;;;;;;4949305;28;20082;-83
2023/04/03 03:17:51;;;;;;;9.93;2.25;;;1.10;99.90;;;;;;4950928;28;20570;-83
2023/04/03 03:20:17;;;;;;;9.00;2.00;;;0.30;99.90;;;;;;4950503;28;20118;-84
2023/04/03 03:22:43;;;;;;;10.77;2.25;;;0.70;99.90;;;;;;4949187;28;20046;-83
2023/04/03 03:25:09;;;;;;;7.57;2.13;;;0.80;99.90;;;;;;4934456;28;20055;-83
2023/04/03 03:27:35;;;;;;;7.07;1.85;;;0.00;99.90;;;;;;4934302;28;20035;-83
2023/04/03 03:30:00;;;;;;;6.78;2.00;;;-0.10;99.90;;;;;;4934247;28;20042;-83
2023/04/03 03:32:26;;;;;;;8.18;1.90;;;0.20;99.90;;;;;;4947942;28;20039;-83
2023/04/03 03:34:52;;;;;;;5.63;2.17;;;0.30;99.90;;;;;;4948725;28;20462;-83
2023/04/03 03:37:17;;;;;;;10.93;2.50;;;0.30;99.90;;;;;;4934142;28;20043;-83
2023/04/03 03:39:43;;;;;;;8.73;2.20;;;-0.20;99.90;;;;;;4937779;28;20422;-83
2023/04/03 03:42:09;;;;;;;6.10;2.00;;;0.10;99.90;;;;;;4937861;28;20093;-83
2023/04/03 03:44:35;;;;;;;6.95;1.92;;;-0.10;99.90;;;;;;4953635;28;20101;-83
2023/04/03 03:47:01;;;;;;;10.95;2.60;;;0.30;99.90;;;;;;4953448;28;20081;-83
2023/04/03 03:49:26;;;;;;;9.48;2.30;;;-0.10;99.90;;;;;;4954271;28;20109;-83
2023/04/03 03:51:52;;;;;;;9.00;2.15;;;-0.20;99.90;;;;;;4952269;28;20173;-83
2023/04/03 03:54:18;;;;;;;12.80;2.08;;;0.70;99.90;;;;;;4937557;28;20047;-83
2023/04/03 03:56:43;;;;;;;10.00;2.50;;;0.10;99.90;;;;;;4953628;28;20094;-83
2023/04/03 03:59:11;;;;;;;14.07;2.42;;;-0.10;99.90;;;;;;4952332;28;20050;-83
2023/04/03 04:01:37;;;;;;;8.10;2.25;;;0.10;99.90;;;;;;4953684;28;20126;-83
2023/04/03 04:04:03;;;;;;;8.98;2.28;;;-0.20;99.90;;;;;;4952694;28;20137;-82
2023/04/03 04:06:28;;;;;;;7.20;2.10;;;-0.20;99.90;;;;;;4937310;28;20051;-82
2023/04/03 04:08:54;;;;;;;7.80;2.97;;;0.10;99.90;;;;;;4953316;28;20137;-82
2023/04/03 04:11:21;;;;;;;13.95;2.97;;;-0.20;99.90;;;;;;4952194;28;20272;-82
2023/04/03 04:13:47;;;;;;;11.55;2.42;;;-0.20;99.90;;;;;;4953358;28;20074;-82
2023/04/03 04:16:13;;;;;;;12.35;2.78;;;0.40;99.90;;;;;;4952674;28;20130;-84
2023/04/03 04:18:38;;;;;;;9.27;2.50;;;0.60;99.90;;;;;;4952646;28;20051;-83
2023/04/03 04:21:04;;;;;;;8.55;2.45;;;0.10;99.90;;;;;;4952508;28;20051;-82
2023/04/03 04:23:30;;;;;;;8.55;2.70;;;-0.30;99.90;;;;;;4954534;28;20459;-82
2023/04/03 04:25:56;;;;;;;10.48;2.85;;;0.30;99.90;;;;;;4935449;28;20054;-83
2023/04/03 04:28:21;;;;;;;6.90;2.53;;;-0.40;99.90;;;;;;4936749;28;20118;-83
2023/04/03 04:30:47;;;;;;;10.15;2.28;;;-0.10;99.90;;;;;;4930098;28;20043;-82
2023/04/03 04:33:13;;;;;;;7.28;2.33;;;0.40;99.90;;;;;;4952497;28;20074;-82
2023/04/03 04:35:41;;;;;;;13.48;3.00;;;-0.40;99.90;;;;;;4935562;28;20105;-82
2023/04/03 04:38:08;;;;;;;12.85;3.00;;;0.50;99.90;;;;;;4953096;28;20447;-82
2023/04/03 04:40:34;;;;;;;9.77;2.85;;;0.10;99.90;;;;;;4951684;28;20066;-82
2023/04/03 04:43:00;;;;;;;11.23;3.00;;;-0.10;99.90;;;;;;4953207;28;20486;-83
2023/04/03 04:45:26;;;;;;;12.07;3.03;;;-0.90;99.90;;;;;;4952809;28;20086;-82
2023/04/03 04:47:52;;;;;;;10.15;2.80;;;0.40;99.90;;;;;;4935884;28;20211;-82
2023/04/03 04:50:18;;;;;;;11.55;3.05;;;0.20;99.90;;;;;;4936316;28;20066;-82
2023/04/03 04:52:44;;;;;;;11.88;2.83;;;-0.40;99.90;;;;;;4935684;28;20482;-82
2023/04/03 04:55:10;;;;;;;10.63;3.20;;;-0.40;99.90;;;;;;4936132;28;20047;-82
2023/04/03 04:57:36;;;;;;;14.27;3.35;;;0.20;99.90;;;;;;4936468;28;20050;-82
2023/04/03 05:00:03;;;;;;;14.73;3.10;;;0.00;99.90;;;;;;4952438;28;20439;-83
2023/04/03 05:02:28;;;;;;;11.55;3.15;;;-0.40;99.90;;;;;;4952227;28;20089;-83
2023/04/03 05:04:54;;;;;;;12.15;3.03;;;-0.50;99.90;;;;;;4935968;28;20082;-82
2023/04/03 05:07:20;;;;;;;8.43;2.97;;;-0.40;99.90;;;;;;4934674;28;20322;-83
2023/04/03 05:09:46;;;;;;;12.30;3.58;;;0.40;99.90;;;;;;4936120;28;20050;-83
2023/04/03 05:12:11;;;;;;;11.63;3.15;;;0.30;99.90;;;;;;4951955;28;20054;-83
2023/04/03 05:14:37;;;;;;;10.63;3.15;;;0.20;99.90;;;;;;4950976;28;20046;-83
2023/04/03 05:17:03;;;;;;;13.07;3.35;;;0.60;99.90;;;;;;4930669;28;20102;-83
2023/04/03 05:19:29;;;;;;;9.10;2.80;;;-0.50;99.90;;;;;;4935580;28;20061;-83
2023/04/03 05:21:54;;;;;;;9.68;2.58;;;0.10;99.90;;;;;;4950330;28;20066;-83
2023/04/03 05:24:20;;;;;;;6.88;2.78;;;0.40;99.90;;;;;;4935325;28;20153;-82
2023/04/03 05:26:46;;;;;;;14.07;2.65;;;-0.50;99.90;;;;;;4951545;28;20138;-83
2023/04/03 05:29:12;;;;;;;10.90;3.17;;;-0.50;99.90;;;;;;4950744;28;20047;-83
2023/04/03 05:31:37;;;;;;;9.63;3.05;;;-0.50;99.90;;;;;;4935400;28;20557;-83
2023/04/03 05:34:03;;;;;;;12.57;2.83;;;-0.30;99.90;;;;;;4935103;28;20066;-83
2023/04/03 05:36:29;;;;;;;7.07;2.40;;;-0.50;99.90;;;;;;4950440;28;20042;-83
2023/04/03 05:38:56;;;;;;;12.00;3.35;;;-0.20;99.90;;;;;;4935890;28;20085;-83
2023/04/03 05:41:22;;;;;;;10.82;2.53;;;-0.10;99.90;;;;;;4950283;28;20483;-83
2023/04/03 05:43:48;;;;;;;12.73;2.83;;;-0.40;99.90;;;;;;4935317;28;20061;-83
2023/04/03 05:46:16;;;;;;;10.07;2.70;;;-0.40;99.90;;;;;;4950755;28;20063;-83
2023/04/03 05:48:42;;;;;;;13.63;3.10;;;-0.10;99.90;;;;;;4935609;28;20149;-83
2023/04/03 05:51:15;;;;;;;10.88;3.00;;;0.50;99.90;;;;;;4933904;28;20077;-83
2023/04/03 05:53:42;;;;;;;11.07;3.38;;;0.00;99.90;;;;;;4936295;28;20035;-83
2023/04/03 05:56:08;;;;;;;12.02;2.88;;;-0.20;99.90;;;;;;4950969;28;20090;-84
2023/04/03 05:58:33;;;;;;;11.57;2.95;;;-0.10;99.90;;;;;;4934256;28;20038;-86
2023/04/03 06:00:59;;;;;;;9.18;2.78;;;-0.10;99.90;;;;;;4950115;28;20061;-86
2023/04/03 06:03:25;;;;;;;10.65;2.80;;;0.20;99.90;;;;;;4950460;28;20437;-85
2023/04/03 06:05:51;;;;;;;8.55;3.03;;;0.00;99.90;;;;;;4934178;28;20350;-85
2023/04/03 06:08:17;;;;;;;7.82;2.90;;;0.10;99.90;;;;;;4968517;28;20050;-85
2023/04/03 06:10:43;;;;;;;9.70;2.83;;;0.20;99.90;;;;;;4933726;28;20495;-86
2023/04/03 06:13:08;;;;;;;12.00;3.03;;;1.20;99.90;;;;;;4935287;28;20077;-85
2023/04/03 06:15:34;;;;;;;10.18;2.97;;;1.00;99.90;;;;;;4934215;28;20395;-84
2023/04/03 06:18:00;;;;;;;11.88;3.03;;;0.30;99.90;;;;;;4934076;28;20043;-84
2023/04/03 06:20:26;;;;;;;15.32;3.10;;;0.40;99.90;;;;;;4950023;28;20058;-84
2023/04/03 06:22:52;;;;;;;9.30;3.17;;;0.40;99.90;;;;;;4934708;28;20043;-83
2023/04/03 06:25:18;;;;;;;10.25;2.85;;;1.50;99.90;;;;;;4931332;28;20043;-83
2023/04/03 06:27:45;;;;;;;11.80;2.63;;;0.90;99.90;;;;;;4934015;28;20085;-84
2023/04/03 06:30:11;;;;;;;14.30;3.50;;;0.60;99.90;;;;;;4925140;28;20073;-83
2023/04/03 06:32:37;;;;;;;10.05;3.38;;;0.60;99.90;;;;;;4933490;28;20137;-83
2023/04/03 06:35:04;;;;;;;11.48;3.20;;;1.40;99.90;;;;;;4934708;28;20069;-84
2023/04/03 06:37:31;;;;;;;10.73;3.75;;;0.70;99.90;;;;;;4934222;28;20054;-84
2023/04/03 06:39:56;;;;;;;12.70;3.58;;;0.80;99.90;;;;;;4949630;28;20054;-84
2023/04/03 06:42:23;;;;;;;12.55;3.55;;;0.90;99.90;;;;;;4933976;28;20043;-84
2023/04/03 06:44:48;;;;;;;11.45;3.50;;;0.90;99.90;;;;;;4933986;28;20053;-83
2023/04/03 06:47:16;;;;;;;12.63;3.35;;;1.30;99.90;;;;;;4949430;28;20043;-83
2023/04/03 06:49:42;;;;;;;26.42;4.53;;;1.30;99.90;;;;;;4934521;28;20388;-83
2023/04/03 06:52:08;;;;;;;7.28;2.88;;;1.10;99.90;;;;;;4949460;28;20055;-83
2023/04/03 06:54:35;;;;;;;8.60;3.65;;;1.80;99.90;;;;;;4949996;28;20051;-84
2023/04/03 06:57:01;;;;;;;9.75;2.90;;;2.30;99.90;;;;;;4950288;28;20055;-84
2023/04/03 06:59:27;;;;;;;10.68;3.28;;;1.30;99.90;;;;;;4938547;28;20061;-83
2023/04/03 07:01:53;;;;;;;9.43;2.60;;;1.30;99.90;;;;;;4949520;28;20483;-84
2023/04/03 07:04:20;;;;;;;10.27;3.30;;;1.40;99.90;;;;;;4934809;28;20223;-84
2023/04/03 07:06:46;;;;;;;15.35;3.80;;;1.60;99.90;;;;;;4949264;28;20089;-84
2023/04/03 07:09:13;;;;;;;9.30;3.20;;;1.50;99.90;;;;;;4950214;28;20516;-84
2023/04/03 07:11:39;;;;;;;11.93;3.28;;;1.50;99.90;;;;;;4934694;28;20574;-84
2023/04/03 07:14:06;;;;;;;11.60;3.33;;;1.70;99.90;;;;;;4953050;28;20039;-83
2023/04/03 07:16:31;;;;;;;9.88;3.17;;;2.30;99.90;;;;;;4938830;28;20489;-84
2023/04/03 07:18:57;;;;;;;13.90;2.88;;;1.70;99.90;;;;;;4939112;28;20524;-84
2023/04/03 07:21:23;;;;;;;10.85;3.20;;;2.20;99.90;;;;;;4936190;28;20509;-84
2023/04/03 07:23:49;;;;;;;11.35;3.50;;;1.80;99.90;;;;;;4938604;28;20138;-84
2023/04/03 07:26:15;;;;;;;17.08;3.67;;;1.90;99.90;;;;;;4935671;28;20197;-83
2023/04/03 07:28:41;;;;;;;8.50;2.78;;;2.00;99.90;;;;;;4944717;29;20039;-84
2023/04/03 07:31:13;;;;;;;11.02;3.35;;;2.00;99.90;;;;;;4926393;28;20043;-84
2023/04/03 07:33:40;;;;;;;12.82;3.20;;;2.60;99.90;;;;;;4932318;29;20073;-84
2023/04/03 07:36:07;;;;;;;14.18;3.72;;;2.40;99.90;;;;;;4945106;28;20134;-83
2023/04/03 07:38:34;;;;;;;9.25;3.13;;;2.20;99.90;;;;;;4942611;28;20055;-84
2023/04/03 07:41:00;;;;;;;7.15;2.70;;;2.30;99.90;;;;;;4948561;28;20383;-84
2023/04/03 07:43:25;;;;;;;12.57;3.25;;;2.70;99.90;;;;;;4931801;28;20043;-84
2023/04/03 07:45:53;;;;;;;9.70;3.00;;;2.50;99.90;;;;;;4930141;28;20208;-85
2023/04/03 07:48:21;;;;;;;8.80;2.70;;;2.60;99.90;;;;;;4952944;28;20054;-84
2023/04/03 07:50:47;;;;;;;8.30;2.33;;;2.60;99.90;;;;;;4933353;28;20376;-84
2023/04/03 07:53:14;;;;;;;13.00;2.72;;;2.60;99.90;;;;;;4953342;28;20102;-84
2023/04/03 07:55:42;;;;;;;10.02;2.45;;;2.70;99.90;;;;;;4953052;28;20517;-84
2023/04/03 07:58:11;;;;;;;13.35;2.67;;;2.80;99.90;;;;;;4952730;28;20423;-84
2023/04/03 08:00:38;;;;;;;8.20;2.85;;;3.00;99.90;;;;;;4937067;28;20062;-84
2023/04/03 08:03:04;;;;;;;10.60;3.15;;;3.40;99.90;;;;;;4952384;28;20042;-84
2023/04/03 08:05:30;;;;;;;7.55;2.33;;;3.00;99.90;;;;;;4952443;28;20082;-83
2023/04/03 08:07:56;;;;;;;5.75;2.22;;;3.10;99.90;;;;;;4933863;28;20077;-83
2023/04/03 08:10:22;;;;;;;11.15;2.40;;;3.20;99.90;;;;;;4951455;28;20079;-83
2023/04/03 08:12:48;;;;;;;9.13;2.70;;;3.20;99.90;;;;;;4936657;28;20217;-84
2023/04/03 08:15:14;;;;;;;11.27;2.67;;;3.30;99.90;;;;;;4953739;28;20046;-84
2023/04/03 08:17:40;;;;;;;11.48;2.60;;;3.50;99.90;;;;;;4952509;28;20047;-84
2023/04/03 08:20:08;;;;;;;14.80;3.00;;;3.50;99.90;;;;;;4937463;28;20066;-84
2023/04/03 08:22:34;;;;;;;6.60;2.20;;;3.60;99.90;;;;;;4936284;28;20046;-84
2023/04/03 08:25:01;;;;;;;7.45;2.50;;;3.70;99.90;;;;;;4935581;28;20512;-84
2023/04/03 08:27:27;;;;;;;11.07;2.58;;;3.80;99.90;;;;;;4936807;28;20050;-85
2023/04/03 08:29:53;;;;;;;11.68;2.33;;;3.90;99.90;;;;;;4934640;28;20039;-84
2023/04/03 08:32:18;;;;;;;6.55;2.10;;;3.90;99.90;;;;;;4948525;28;20407;-85
2023/04/03 08:34:44;;;;;;;6.88;2.10;;;4.10;99.90;;;;;;4934387;28;20134;-85
2023/04/03 08:37:10;;;;;;;6.70;2.30;;;4.10;99.90;;;;;;4934605;28;20043;-84
2023/04/03 08:39:36;;;;;;;4.20;1.73;;;4.20;99.90;;;;;;4925814;28;20050;-85
2023/04/03 08:42:14;;;;;;;7.00;1.67;;;4.30;99.90;;;;;;4937737;28;20098;-84
2023/04/03 08:44:48;;;;;;;8.85;1.50;;;4.40;99.90;;;;;;4933511;29;20039;-84
2023/04/03 08:47:20;;;;;;;4.78;1.50;;;4.50;99.90;;;;;;4930416;28;20049;-84
2023/04/03 08:49:51;;;;;;;7.97;1.38;;;4.60;99.90;;;;;;4937605;28;20065;-84
2023/04/03 08:52:20;;;;;;;6.55;1.40;;;4.80;99.90;;;;;;4934642;28;20122;-86
2023/04/03 08:54:50;;;;;;;5.68;1.45;;;4.80;99.90;;;;;;4953113;28;20261;-86
2023/04/03 08:57:20;;;;;;;8.25;1.40;;;4.90;99.90;;;;;;4936213;28;20051;-84
2023/04/03 08:59:45;;;;;;;5.55;1.20;;;5.00;99.90;;;;;;4933965;28;20053;-84
2023/04/03 09:02:24;;;;;;;10.25;1.60;;;5.00;99.90;;;;;;4935689;28;20051;-84
2023/04/03 09:04:50;;;;;;;47.88;3.30;;;5.10;99.90;;;;;;4923035;29;20628;-85
2023/04/03 09:07:28;;;;;;;6.47;1.38;;;5.10;99.90;;;;;;4926752;28;20500;-85
2023/04/03 09:09:55;;;;;;;4.72;1.40;;;5.20;99.90;;;;;;4935639;28;20059;-85
2023/04/03 09:12:23;;;;;;;6.03;1.10;;;5.30;99.90;;;;;;4935610;28;20101;-84
2023/04/03 09:15:03;;;;;;;6.10;1.65;;;5.30;99.90;;;;;;4924128;28;20048;-85
2023/04/03 09:17:44;;;;;;;26.73;2.53;;;5.40;99.90;;;;;;4934543;29;20051;-84
2023/04/03 09:20:26;;;;;;;5.00;1.60;;;5.40;99.90;;;;;;4918675;29;20102;-85
2023/04/03 09:22:54;;;;;;;3.63;1.23;;;5.50;99.90;;;;;;4918745;28;20055;-85
2023/04/03 09:25:32;;;;;;;7.63;1.38;;;5.60;99.90;;;;;;4917987;28;20051;-84
2023/04/03 09:27:59;;;;;;;4.63;1.10;;;5.60;99.90;;;;;;4933169;28;20039;-85
2023/04/03 09:30:26;;;;;;;3.30;1.10;;;5.70;99.90;;;;;;4936153;29;20407;-85
2023/04/03 09:32:54;;;;;;;8.07;1.67;;;5.80;99.90;;;;;;4948565;28;20066;-84
2023/04/03 09:35:32;;;;;;;4.25;1.23;;;5.40;99.90;;;;;;4918692;29;20065;-84
2023/04/03 09:38:01;;;;;;;5.43;1.05;;;5.90;99.90;;;;;;4921645;28;20031;-83
2023/04/03 09:40:30;;;;;;;7.55;1.45;;;6.00;99.90;;;;;;4918644;29;20043;-86
2023/04/03 09:42:59;;;;;;;3.78;1.13;;;6.00;99.90;;;;;;4919409;29;20047;-82
2023/04/03 09:45:28;;;;;;;4.82;1.15;;;6.10;99.90;;;;;;4917953;29;20065;-83
2023/04/03 09:48:12;;;;;;;5.20;1.17;;;6.10;99.90;;;;;;4929300;29;20146;-83
2023/04/03 09:50:50;;;;;;;5.47;1.20;;;6.20;99.90;;;;;;4930989;28;20066;-86
2023/04/03 09:53:39;;;;;;;5.00;1.40;;;6.20;99.90;;;;;;4951771;28;20047;-84
2023/04/03 09:56:17;;;;;;;3.70;1.10;;;6.30;99.90;;;;;;4934534;28;20042;-83
2023/04/03 09:58:45;;;;;;;4.00;1.30;;;6.40;99.90;;;;;;4950599;28;20063;-82
2023/04/03 10:01:34;;;;;;;7.22;1.38;;;6.50;99.90;;;;;;4932015;28;20038;-83
2023/04/03 10:04:16;;;;;;;4.85;1.23;;;6.60;99.90;;;;;;4932640;28;20405;-82
2023/04/03 10:06:47;;;;;;;6.63;1.13;;;6.60;99.90;;;;;;4946214;28;20046;-82
2023/04/03 10:09:22;;;;;;;5.03;0.98;;;6.60;99.90;;;;;;4934800;28;20057;-83
2023/04/03 10:12:01;;;;;;;4.78;1.00;;;6.80;99.90;;;;;;4934791;28;20053;-83
2023/04/03 10:14:28;;;;;;;5.07;1.40;;;6.90;99.90;;;;;;4952177;28;20046;-83
2023/04/03 10:17:15;;;;;;;4.50;1.17;;;7.00;99.90;;;;;;4949799;28;20038;-83
2023/04/03 10:19:56;;;;;;;5.38;1.13;;;7.00;99.90;;;;;;4951139;28;20598;-83
2023/04/03 10:22:22;;;;;;;7.38;1.17;;;7.10;99.90;;;;;;4949844;28;20050;-83
2023/04/03 10:24:55;;;;;;;7.40;1.15;;;7.20;99.90;;;;;;4933099;28;20710;-83
2023/04/03 10:27:22;;;;;;;4.03;0.82;;;7.30;99.90;;;;;;4943911;28;20137;-84
2023/04/03 10:29:54;;;;;;;4.47;1.10;;;7.30;99.90;;;;;;4931390;28;20054;-83
2023/04/03 10:32:44;;;;;;;7.68;1.20;;;7.40;99.90;;;;;;4948281;28;20090;-82
2023/04/03 10:35:27;;;;;;;4.13;0.90;;;7.40;99.90;;;;;;4955603;28;20058;-82
2023/04/03 10:38:20;;;;;;;3.10;1.00;;;7.50;99.90;;;;;;4934750;28;20518;-85
2023/04/03 10:40:55;;;;;;;4.07;1.17;;;7.60;99.90;;;;;;4947589;28;20078;-81
2023/04/03 10:44:05;;;;;;;3.88;1.00;;;7.70;99.90;;;;;;4951386;28;20133;-81
2023/04/03 10:46:41;;;;;;;4.15;1.05;;;7.80;99.90;;;;;;4934701;28;20042;-81
2023/04/03 10:49:25;;;;;;;8.13;1.15;;;7.80;99.90;;;;;;4941248;28;20038;-82
2023/04/03 10:52:04;;;;;;;4.80;1.20;;;7.80;99.90;;;;;;4955683;28;20507;-82
2023/04/03 10:54:40;;;;;;;2.55;0.98;;;7.80;99.90;;;;;;4942079;28;20784;-81
2023/04/03 10:57:10;;;;;;;3.08;0.75;;;7.90;99.90;;;;;;4940879;28;20463;-81
2023/04/03 10:59:38;;;;;;;1.85;0.65;;;7.90;99.90;;;;;;4940766;28;20043;-81
2023/04/03 11:02:09;;;;;;;2.40;0.90;;;8.00;99.90;;;;;;4957166;28;20269;-81
2023/04/03 11:04:39;;;;;;;4.28;0.90;;;8.10;99.90;;;;;;4941141;28;20062;-82
2023/04/03 11:07:14;;;;;;;4.18;0.95;;;8.10;99.90;;;;;;4955555;28;20426;-82
2023/04/03 11:09:43;;;;;;;3.40;0.90;;;8.20;99.90;;;;;;4940867;28;20370;-81
2023/04/03 11:12:26;;;;;;;3.65;0.70;;;8.20;99.90;;;;;;4940859;28;20090;-82
2023/04/03 11:14:54;;;;;;;2.00;0.60;;;8.30;99.90;;;;;;4940093;28;20050;-81
2023/04/03 11:17:31;;;;;;;6.35;0.88;;;8.30;99.90;;;;;;4940707;28;20050;-82
2023/04/03 11:20:00;;;;;;;2.92;0.77;;;8.40;99.90;;;;;;4940246;28;20055;-82
2023/04/03 11:22:32;;;;;;;3.33;0.75;;;8.40;99.90;;;;;;4940583;28;20046;-81
2023/04/03 11:25:03;;;;;;;3.13;0.73;;;8.40;99.90;;;;;;4957002;28;20053;-82
2023/04/03 11:27:39;;;;;;;6.50;1.00;;;8.50;99.90;;;;;;4948930;28;20459;-81
2023/04/03 11:30:09;;;;;;;4.50;0.93;;;8.40;99.90;;;;;;4956976;28;20050;-82
2023/04/03 11:32:35;;;;;;;3.25;0.75;;;8.50;99.90;;;;;;4956503;28;20042;-81
2023/04/03 11:35:05;;;;;;;3.35;0.80;;;8.60;99.90;;;;;;4940375;28;20038;-81
2023/04/03 11:37:38;;;;;;;2.90;0.70;;;8.60;99.90;;;;;;4955899;28;20042;-81
2023/04/03 11:40:17;;;;;;;3.13;0.68;;;8.60;99.90;;;;;;4940840;28;20051;-81
2023/04/03 11:42:48;;;;;;;6.40;0.90;;;8.70;99.90;;;;;;4955817;28;20532;-82
2023/04/03 11:45:27;;;;;;;3.15;0.60;;;8.70;99.90;;;;;;4940848;28;20087;-81
2023/04/03 11:47:55;;;;;;;3.97;0.90;;;8.70;99.60;;;;;;4956478;28;20042;-82
2023/04/03 11:50:34;;;;;;;3.47;0.90;;;8.70;99.80;;;;;;4955884;28;20058;-81
2023/04/03 11:53:06;;;;;;;4.50;0.82;;;8.80;99.60;;;;;;4946069;28;20085;-81
2023/04/03 11:55:31;;;;;;;3.38;0.90;;;8.80;99.40;;;;;;4955577;28;20113;-82
2023/04/03 11:57:57;;;;;;;3.15;0.90;;;8.80;99.50;;;;;;4941335;28;20553;-82
2023/04/03 12:00:49;;;;;;;40.03;2.17;;;8.80;99.40;;;;;;4952931;28;20057;-82
2023/04/03 12:03:26;;;;;;;5.63;1.52;;;8.90;99.90;;;;;;4936715;28;20047;-82
2023/04/03 12:05:57;;;;;;;5.30;1.00;;;8.90;99.40;;;;;;4952502;28;20130;-81
2023/04/03 12:08:29;;;;;;;10.40;0.95;;;8.90;99.80;;;;;;4937794;28;20046;-82
2023/04/03 12:11:11;;;;;;;3.58;1.00;;;8.80;99.40;;;;;;4936443;28;20101;-82
2023/04/03 12:13:48;;;;;;;6.32;1.00;;;8.90;98.20;;;;;;4953491;28;20039;-82
2023/04/03 12:16:37;;;;;;;7.00;0.88;;;8.80;98.40;;;;;;4936195;28;20054;-82
2023/04/03 12:19:16;;;;;;;4.65;1.02;;;8.80;98.40;;;;;;4937317;28;20510;-82
2023/04/03 12:21:52;;;;;;;5.93;0.90;;;8.90;98.70;;;;;;4936284;28;20065;-82
2023/04/03 12:24:24;;;;;;;3.88;0.77;;;8.90;98.50;;;;;;4936610;28;20058;-82
2023/04/03 12:27:02;;;;;;;1.98;0.73;;;8.90;98.20;;;;;;4943438;28;20050;-82
2023/04/03 12:29:32;;;;;;;15.15;1.08;;;9.00;98.30;;;;;;4953634;28;20459;-82
2023/04/03 12:32:30;;;;;;;5.82;0.93;;;9.10;98.30;;;;;;4952121;28;20059;-81
2023/04/03 12:35:24;;;;;;;1.98;0.80;;;9.10;97.70;;;;;;4936866;28;20113;-81
2023/04/03 12:38:20;;;;;;;3.45;0.77;;;9.10;97.10;;;;;;4951619;28;20403;-81
2023/04/03 12:40:53;;;;;;;3.97;0.60;;;9.10;97.50;;;;;;4936562;28;20427;-81
2023/04/03 12:43:40;;;;;;;7.18;1.30;;;9.20;97.80;;;;;;4936995;28;20038;-82
2023/04/03 12:46:07;;;;;;;5.18;1.00;;;9.20;97.00;;;;;;4951730;28;20495;-82
2023/04/03 12:48:54;;;;;;;2.85;0.70;;;9.20;96.80;;;;;;4936702;28;20439;-82
2023/04/03 12:51:35;;;;;;;5.18;1.05;;;9.20;95.60;;;;;;4935883;28;20677;-82
2023/04/03 12:54:12;;;;;;;3.38;0.73;;;9.10;96.70;;;;;;4936482;28;20054;-82
2023/04/03 12:56:38;;;;;;;4.15;0.90;;;9.10;96.50;;;;;;4952375;28;20047;-84
2023/04/03 12:59:26;;;;;;;4.65;1.00;;;9.10;96.60;;;;;;4935882;28;20047;-82
2023/04/03 13:01:58;;;;;;;1.35;0.50;;;9.20;96.50;;;;;;4940216;28;20051;-83
2023/04/03 13:04:24;;;;;;;4.18;0.55;;;9.20;96.20;;;;;;4932848;29;20046;-83